createdAt,value
2022-08-06T00:00:07.945Z,101674.53
2022-08-06T00:02:42.287Z,101680.25
2022-08-06T00:05:18.097Z,101682.56
2022-08-06T00:07:53.397Z,101686.47
2022-08-06T00:10:29.696Z,101693.34
2022-08-06T00:13:02.237Z,101701.84
2022-08-06T00:16:06.354Z,101700.72
2022-08-06T00:18:24.937Z,101706.09
2022-08-06T00:20:53.509Z,101700.13
2022-08-06T00:23:24.617Z,101699.22
2022-08-06T00:25:54.326Z,101709.78
2022-08-06T00:28:31.812Z,101721.25
2022-08-06T00:31:06.112Z,101712.06
2022-08-06T00:33:44.346Z,101718.97
2022-08-06T00:36:25.016Z,101718.38
2022-08-06T00:38:54.374Z,101714.59
2022-08-06T00:41:27.276Z,101714.59
2022-08-06T00:44:00.239Z,101712.28
2022-08-06T00:46:32.343Z,101721.13
2022-08-06T00:49:10.829Z,101723.13
2022-08-06T00:51:50.312Z,101728.25
2022-08-06T00:54:28.964Z,101732.75
2022-08-06T00:57:10.298Z,101736.13
2022-08-06T00:59:43.009Z,101733.88
2022-08-06T01:02:11.986Z,101727.25
2022-08-06T01:04:43.365Z,101724.41
2022-08-06T01:07:11.998Z,101729.31
2022-08-06T01:09:46.176Z,101733.34
2022-08-06T01:12:32.276Z,101733.28
2022-08-06T01:15:15.629Z,101723.13
2022-08-06T01:17:59.655Z,101732.97
2022-08-06T01:21:57.064Z,101729.78
2022-08-06T01:24:31.772Z,101740.00
2022-08-06T01:27:34.489Z,101727.41
2022-08-06T01:30:27.200Z,101733.09
2022-08-06T01:33:15.917Z,101743.47
2022-08-06T01:35:55.796Z,101743.84
2022-08-06T01:38:59.713Z,101747.72
2022-08-06T01:41:56.166Z,101750.25
2022-08-06T01:44:34.342Z,101738.94
2022-08-06T01:47:15.947Z,101742.22
2022-08-06T01:50:02.398Z,101741.81
2022-08-06T01:52:40.612Z,101746.91
2022-08-06T01:55:18.638Z,101742.22
2022-08-06T01:58:08.113Z,101750.53
2022-08-06T02:00:52.587Z,101760.88
2022-08-06T02:03:50.412Z,101766.09
2022-08-06T02:06:36.910Z,101758.03
2022-08-06T02:09:21.674Z,101754.13
2022-08-06T02:12:10.802Z,101763.41
2022-08-06T02:14:54.131Z,101748.19
2022-08-06T02:18:03.405Z,101758.03
2022-08-06T02:20:36.699Z,101765.63
2022-08-06T02:23:13.762Z,101770.75
2022-08-06T02:25:46.020Z,101786.47
2022-08-06T02:28:27.575Z,101779.66
2022-08-06T02:30:59.150Z,101784.66
2022-08-06T02:33:32.478Z,101781.94
2022-08-06T02:36:27.130Z,101792.97
2022-08-06T02:38:59.439Z,101795.25
2022-08-06T02:42:03.060Z,101803.81
2022-08-06T02:44:55.051Z,101801.09
2022-08-06T02:47:52.931Z,101805.16
2022-08-06T02:50:30.666Z,101801.81
2022-08-06T02:53:24.742Z,101810.09
2022-08-06T02:56:04.878Z,101820.66
2022-08-06T02:58:58.094Z,101810.19
2022-08-06T03:01:39.911Z,101823.16
2022-08-06T03:04:15.386Z,101821.75
2022-08-06T03:06:48.717Z,101818.72
2022-08-06T03:09:20.128Z,101821.94
2022-08-06T03:11:51.155Z,101836.81
2022-08-06T03:15:05.139Z,101835.09
2022-08-06T03:17:15.583Z,101846.47
2022-08-06T03:19:53.602Z,101850.69
2022-08-06T03:22:35.218Z,101844.28
2022-08-06T03:25:13.657Z,101855.53
2022-08-06T03:27:45.032Z,101858.66
2022-08-06T03:30:32.239Z,101863.34
2022-08-06T03:33:42.005Z,101856.09
2022-08-06T03:36:04.241Z,101867.81
2022-08-06T03:38:41.953Z,101871.06
2022-08-06T03:41:18.242Z,101873.19
2022-08-06T03:44:02.593Z,101882.84
2022-08-06T03:46:54.124Z,101883.19
2022-08-06T03:49:41.680Z,101891.94
2022-08-06T03:52:22.787Z,101895.31
2022-08-06T03:54:56.428Z,101900.81
2022-08-06T03:57:41.044Z,101896.94
2022-08-06T04:00:22.522Z,101907.75
2022-08-06T04:03:02.989Z,101914.22
2022-08-06T04:05:34.338Z,101914.03
2022-08-06T04:08:08.813Z,101902.91
2022-08-06T04:10:56.814Z,101904.34
2022-08-06T04:14:02.934Z,101910.63
2022-08-06T04:16:32.949Z,101902.56
2022-08-06T04:19:09.328Z,101907.94
2022-08-06T04:22:57.759Z,101911.97
2022-08-06T04:24:30.418Z,101904.50
2022-08-06T04:27:09.434Z,101914.63
2022-08-06T04:29:56.269Z,101929.63
2022-08-06T04:32:29.709Z,101934.22
2022-08-06T04:36:06.383Z,101944.41
2022-08-06T04:37:56.731Z,101947.28
2022-08-06T04:40:35.436Z,101939.56
2022-08-06T04:43:14.153Z,101949.19
2022-08-06T04:46:16.725Z,101954.50
2022-08-06T04:48:40.019Z,101951.19
2022-08-06T04:51:10.476Z,101959.41
2022-08-06T04:53:58.086Z,101971.06
2022-08-06T04:56:29.875Z,101971.03
2022-08-06T04:59:07.490Z,101971.09
2022-08-06T05:01:40.851Z,101971.03
2022-08-06T05:04:26.746Z,101975.72
2022-08-06T05:07:13.573Z,101988.16
2022-08-06T05:09:44.018Z,101993.00
2022-08-06T05:12:43.239Z,102000.88
2022-08-06T05:15:25.045Z,101997.66
2022-08-06T05:19:00.956Z,101995.84
2022-08-06T05:21:06.460Z,101996.88
2022-08-06T05:23:50.351Z,102002.47
2022-08-06T05:26:24.586Z,102009.50
2022-08-06T05:28:54.355Z,102005.66
2022-08-06T05:31:38.494Z,102011.16
2022-08-06T05:34:12.634Z,102017.50
2022-08-06T05:36:43.837Z,102027.25
2022-08-06T05:39:57.113Z,102031.44
2022-08-06T05:42:00.975Z,102026.59
2022-08-06T05:44:30.009Z,102031.13
2022-08-06T05:47:08.617Z,102031.44
2022-08-06T05:49:55.282Z,102036.47
2022-08-06T05:52:47.914Z,102040.00
2022-08-06T05:55:38.683Z,102045.34
2022-08-06T05:58:34.693Z,102044.84
2022-08-06T06:01:13.887Z,102048.88
2022-08-06T06:03:44.316Z,102057.75
2022-08-06T06:06:18.714Z,102064.91
2022-08-06T06:08:57.969Z,102057.41
2022-08-06T06:11:47.150Z,102059.72
2022-08-06T06:14:45.182Z,102058.06
2022-08-06T06:17:48.519Z,102052.72
2022-08-06T06:21:17.506Z,102052.97
2022-08-06T06:24:26.746Z,102058.41
2022-08-06T06:27:36.238Z,102067.66
2022-08-06T06:30:10.601Z,102066.16
2022-08-06T06:32:50.084Z,102071.91
2022-08-06T06:35:42.837Z,102065.66
2022-08-06T06:38:58.550Z,102079.00
2022-08-06T06:41:53.419Z,102073.31
2022-08-06T06:46:05.387Z,102083.00
2022-08-06T06:48:14.206Z,102090.75
2022-08-06T06:50:48.734Z,102085.31
2022-08-06T06:53:23.888Z,102091.19
2022-08-06T06:56:02.636Z,102086.06
2022-08-06T06:58:47.059Z,102090.97
2022-08-06T07:01:28.812Z,102093.44
2022-08-06T07:04:00.050Z,102094.66
2022-08-06T07:06:43.759Z,102094.09
2022-08-06T07:09:39.164Z,102099.78
2022-08-06T07:12:20.414Z,102108.38
2022-08-06T07:14:58.581Z,102094.91
2022-08-06T07:17:45.203Z,102096.78
2022-08-06T07:20:28.736Z,102106.31
2022-08-06T07:24:03.106Z,102113.53
2022-08-06T07:25:55.767Z,102098.47
2022-08-06T07:28:28.758Z,102106.41
2022-08-06T07:31:03.996Z,102110.22
2022-08-06T07:33:42.948Z,102120.22
2022-08-06T07:36:28.981Z,102116.47
2022-08-06T07:39:04.258Z,102110.50
2022-08-06T07:42:07.765Z,102113.88
2022-08-06T07:44:29.306Z,102119.09
2022-08-06T07:47:23.908Z,102116.66
2022-08-06T07:49:59.715Z,102122.06
2022-08-06T07:52:32.296Z,102121.88
2022-08-06T07:55:03.140Z,102132.50
2022-08-06T07:57:54.645Z,102127.00
2022-08-06T08:00:21.895Z,102130.72
2022-08-06T08:03:43.543Z,102124.50
2022-08-06T08:06:21.535Z,102140.56
2022-08-06T08:09:05.630Z,102135.19
2022-08-06T08:12:16.286Z,102137.25
2022-08-06T08:14:31.323Z,102139.28
2022-08-06T08:17:01.357Z,102139.91
2022-08-06T08:19:35.902Z,102138.75
2022-08-06T08:22:11.465Z,102146.59
2022-08-06T08:24:53.852Z,102146.88
2022-08-06T08:27:23.594Z,102140.50
2022-08-06T08:29:59.758Z,102154.84
2022-08-06T08:32:28.571Z,102150.06
2022-08-06T08:34:57.623Z,102146.84
2022-08-06T08:37:32.126Z,102151.38
2022-08-06T08:40:02.178Z,102151.31
2022-08-06T08:42:56.695Z,102146.97
2022-08-06T08:45:33.731Z,102151.28
2022-08-06T08:48:06.241Z,102142.34
2022-08-06T08:50:36.478Z,102156.75
2022-08-06T08:53:15.308Z,102153.47
2022-08-06T08:57:07.339Z,102146.91
2022-08-06T08:58:46.818Z,102150.59
2022-08-06T09:01:52.120Z,102150.56
2022-08-06T09:04:15.448Z,102153.22
2022-08-06T09:06:50.028Z,102159.22
2022-08-06T09:09:19.886Z,102158.63
2022-08-06T09:12:04.546Z,102157.63
2022-08-06T09:14:37.190Z,102154.34
2022-08-06T09:17:12.615Z,102147.94
2022-08-06T09:19:42.091Z,102148.38
2022-08-06T09:22:11.945Z,102143.75
2022-08-06T09:24:40.994Z,102151.97
2022-08-06T09:27:59.165Z,102152.13
2022-08-06T09:30:25.203Z,102156.00
2022-08-06T09:33:04.119Z,102153.03
2022-08-06T09:36:00.172Z,102151.50
2022-08-06T09:38:30.129Z,102153.28
2022-08-06T09:41:15.177Z,102159.81
2022-08-06T09:44:03.716Z,102162.19
2022-08-06T09:46:48.598Z,102157.63
2022-08-06T09:49:48.235Z,102164.28
2022-08-06T09:52:18.019Z,102167.25
2022-08-06T09:54:52.801Z,102160.16
2022-08-06T09:57:33.277Z,102157.72
2022-08-06T10:00:09.620Z,102158.94
2022-08-06T10:02:45.822Z,102165.44
2022-08-06T10:05:21.272Z,102152.06
2022-08-06T10:08:15.312Z,102152.78
2022-08-06T10:10:49.829Z,102148.22
2022-08-06T10:13:20.200Z,102155.19
2022-08-06T10:16:04.259Z,102162.69
2022-08-06T10:18:55.191Z,102160.88
2022-08-06T10:21:41.736Z,102154.31
2022-08-06T10:24:12.505Z,102155.63
2022-08-06T10:26:44.568Z,102156.38
2022-08-06T10:29:18.844Z,102164.66
2022-08-06T10:31:55.256Z,102160.41
2022-08-06T10:34:31.251Z,102167.56
2022-08-06T10:37:47.547Z,102167.94
2022-08-06T10:40:09.515Z,102159.75
2022-08-06T10:42:40.985Z,102166.25
2022-08-06T10:45:14.215Z,102164.28
2022-08-06T10:48:59.814Z,102165.75
2022-08-06T10:50:52.424Z,102158.94
2022-08-06T10:54:01.083Z,102158.09
2022-08-06T10:56:28.695Z,102163.47
2022-08-06T10:59:05.286Z,102155.56
2022-08-06T11:02:17.987Z,102154.38
2022-08-06T11:05:17.592Z,102158.72
2022-08-06T11:08:23.755Z,102150.38
2022-08-06T11:11:31.979Z,102141.84
2022-08-06T11:14:15.115Z,102150.50
2022-08-06T11:17:00.718Z,102143.03
2022-08-06T11:19:56.647Z,102149.44
2022-08-06T11:22:43.328Z,102142.41
2022-08-06T11:25:39.369Z,102149.25
2022-08-06T11:28:10.271Z,102139.88
2022-08-06T11:30:55.624Z,102143.94
2022-08-06T11:33:36.435Z,102139.44
2022-08-06T11:36:11.277Z,102139.50
2022-08-06T11:38:55.483Z,102131.94
2022-08-06T11:41:51.554Z,102133.78
2022-08-06T11:44:25.370Z,102131.06
2022-08-06T11:47:22.963Z,102130.16
2022-08-06T11:50:02.291Z,102132.94
2022-08-06T11:52:39.403Z,102135.44
2022-08-06T11:55:22.683Z,102128.84
2022-08-06T11:58:21.786Z,102122.09
2022-08-06T12:01:03.846Z,102126.41
2022-08-06T12:03:52.205Z,102135.25
2022-08-06T12:06:28.972Z,102133.69
2022-08-06T12:09:21.319Z,102123.34
2022-08-06T12:12:26.929Z,102135.97
2022-08-06T12:14:57.473Z,102131.97
2022-08-06T12:17:44.482Z,102129.22
2022-08-06T12:20:33.856Z,102138.03
2022-08-06T12:23:17.538Z,102122.94
2022-08-06T12:25:49.071Z,102132.63
2022-08-06T12:28:20.434Z,102125.88
2022-08-06T12:30:55.447Z,102129.63
2022-08-06T12:33:24.677Z,102129.94
2022-08-06T12:35:59.947Z,102122.63
2022-08-06T12:38:32.866Z,102124.84
2022-08-06T12:41:11.000Z,102131.31
2022-08-06T12:43:57.677Z,102122.66
2022-08-06T12:46:29.489Z,102124.09
2022-08-06T12:49:03.487Z,102122.47
2022-08-06T12:51:32.377Z,102120.72
2022-08-06T12:54:05.726Z,102110.19
2022-08-06T12:56:39.510Z,102112.25
2022-08-06T12:59:22.723Z,102115.38
2022-08-06T13:02:06.955Z,102118.16
2022-08-06T13:04:47.125Z,102106.84
2022-08-06T13:07:16.660Z,102099.94
2022-08-06T13:10:33.460Z,102102.72
2022-08-06T13:14:02.529Z,102105.13
2022-08-06T13:15:31.797Z,102117.84
2022-08-06T13:18:41.845Z,102118.91
2022-08-06T13:21:26.946Z,102108.22
2022-08-06T13:24:13.464Z,102106.50
2022-08-06T13:26:54.233Z,102097.84
2022-08-06T13:30:33.980Z,102103.34
2022-08-06T13:32:19.910Z,102099.97
2022-08-06T13:35:17.086Z,102093.97
2022-08-06T13:37:55.540Z,102096.09
2022-08-06T13:40:41.691Z,102093.97
2022-08-06T13:43:11.382Z,102107.38
2022-08-06T13:46:17.104Z,102097.59
2022-08-06T13:48:54.219Z,102105.16
2022-08-06T13:51:28.958Z,102098.13
2022-08-06T13:53:59.001Z,102100.53
2022-08-06T13:56:28.541Z,102095.97
2022-08-06T13:58:59.338Z,102102.91
2022-08-06T14:01:44.328Z,102109.91
2022-08-06T14:04:18.360Z,102103.13
2022-08-06T14:06:48.844Z,102100.78
2022-08-06T14:09:23.392Z,102099.16
2022-08-06T14:12:01.230Z,102100.41
2022-08-06T14:14:30.938Z,102100.34
2022-08-06T14:17:02.622Z,102091.47
2022-08-06T14:20:17.689Z,102101.78
2022-08-06T14:22:19.269Z,102104.09
2022-08-06T14:24:54.549Z,102098.41
2022-08-06T14:27:24.028Z,102100.84
2022-08-06T14:30:28.760Z,102100.41
2022-08-06T14:32:47.997Z,102090.53
2022-08-06T14:35:18.653Z,102086.25
2022-08-06T14:37:51.386Z,102082.31
2022-08-06T14:41:01.317Z,102084.53
2022-08-06T14:43:56.281Z,102091.22
2022-08-06T14:46:30.458Z,102088.19
2022-08-06T14:49:09.434Z,102091.56
2022-08-06T15:00:48.578Z,102089.72
2022-08-06T15:24:42.803Z,102096.38
2022-08-06T17:36:50.652Z,102058.19
2022-08-06T17:39:20.033Z,102059.69
2022-08-06T17:41:54.572Z,102068.09
2022-08-06T17:44:22.899Z,102064.13
2022-08-06T17:46:52.521Z,102075.72
2022-08-06T17:49:21.590Z,102068.09
2022-08-06T17:51:51.332Z,102078.59
2022-08-06T17:54:46.568Z,102077.13
2022-08-06T17:57:20.377Z,102067.34
2022-08-06T18:00:05.478Z,102076.53
2022-08-06T18:02:40.585Z,102085.88
2022-08-06T18:05:35.342Z,102080.41
2022-08-06T18:08:10.753Z,102083.34
2022-08-06T18:10:45.116Z,102089.91
2022-08-06T18:13:14.051Z,102087.47
2022-08-06T18:15:49.920Z,102094.25
2022-08-06T18:18:21.598Z,102094.06
2022-08-06T18:20:51.072Z,102097.16
2022-08-06T18:23:20.942Z,102096.53
2022-08-06T18:25:56.887Z,102099.97
2022-08-06T18:28:33.247Z,102100.59
2022-08-06T18:31:09.313Z,102102.69
2022-08-06T18:33:42.693Z,102099.47
2022-08-06T18:36:16.833Z,102104.28
2022-08-06T18:38:45.327Z,102101.41
2022-08-06T18:41:16.763Z,102105.47
2022-08-06T18:43:54.287Z,102111.88
2022-08-06T18:47:00.798Z,102111.44
2022-08-06T18:49:20.487Z,102114.34
2022-08-06T18:51:59.497Z,102113.16
2022-08-06T18:54:28.090Z,102120.91
2022-08-06T18:57:00.331Z,102122.41
2022-08-06T18:59:32.650Z,102125.31
2022-08-06T19:02:03.475Z,102125.38
2022-08-06T19:04:34.456Z,102130.00
2022-08-06T19:07:08.743Z,102127.09
2022-08-06T19:09:37.244Z,102129.25
2022-08-06T19:12:20.473Z,102141.72
2022-08-06T19:14:50.923Z,102145.47
2022-08-06T19:17:47.917Z,102140.38
2022-08-06T19:20:20.433Z,102151.91
2022-08-06T19:22:53.524Z,102155.16
2022-08-06T19:25:41.647Z,102151.22
2022-08-06T19:28:35.868Z,102156.56
2022-08-06T19:31:05.052Z,102151.22
2022-08-06T19:33:34.725Z,102150.59
2022-08-06T19:36:26.829Z,102151.66
2022-08-06T19:38:55.358Z,102162.47
2022-08-06T19:41:55.775Z,102157.69
2022-08-06T19:44:26.721Z,102156.97
2022-08-06T19:47:15.459Z,102157.66
2022-08-06T19:49:52.675Z,102156.16
2022-08-06T19:52:25.807Z,102160.94
2022-08-06T19:54:58.199Z,102157.22
2022-08-06T19:57:46.361Z,102164.47
2022-08-06T20:00:51.325Z,102168.53
2022-08-06T20:03:04.307Z,102168.78
2022-08-06T20:06:20.232Z,102171.56
2022-08-06T20:08:32.729Z,102163.88
2022-08-06T20:11:09.557Z,102174.97
2022-08-06T20:13:54.942Z,102180.84
2022-08-06T20:16:23.172Z,102172.97
2022-08-06T20:18:51.901Z,102174.75
2022-08-06T20:21:42.845Z,102190.44
2022-08-06T20:24:09.368Z,102183.19
2022-08-06T20:26:37.644Z,102183.81
2022-08-06T20:30:03.214Z,102184.13
2022-08-06T20:32:22.250Z,102178.81
2022-08-06T20:34:51.871Z,102183.88
2022-08-06T20:37:20.438Z,102191.16
2022-08-06T20:39:50.394Z,102195.28
2022-08-06T20:42:18.767Z,102193.28
2022-08-06T20:48:53.280Z,102197.88
2022-08-06T20:51:55.991Z,102199.91
2022-08-06T21:01:26.550Z,102195.78
2022-08-06T21:05:15.411Z,102193.53
2022-08-06T21:10:54.168Z,102195.25
2022-08-06T21:13:36.004Z,102195.03
2022-08-06T21:16:28.733Z,102198.13
2022-08-06T21:19:01.662Z,102196.41
2022-08-06T21:21:32.271Z,102194.81
2022-08-06T21:24:03.109Z,102200.09
2022-08-06T21:26:35.565Z,102206.31
2022-08-06T21:29:41.396Z,102208.50
2022-08-06T21:31:58.358Z,102205.03
2022-08-06T21:34:29.872Z,102208.97
2022-08-06T21:37:00.476Z,102206.06
2022-08-06T21:39:57.253Z,102205.03
2022-08-06T21:42:20.435Z,102202.53
2022-08-06T21:44:52.157Z,102209.84
2022-08-06T21:47:20.493Z,102209.59
2022-08-06T21:49:59.990Z,102216.78
2022-08-06T21:52:40.297Z,102211.47
2022-08-06T21:56:34.924Z,102213.59
2022-08-06T21:58:03.580Z,102217.22
2022-08-06T22:00:46.606Z,102213.19
2022-08-06T22:04:39.682Z,102213.84
2022-08-06T22:06:20.438Z,102211.09
2022-08-06T22:08:57.376Z,102208.81
2022-08-06T22:12:37.242Z,102216.66
2022-08-06T22:14:17.988Z,102211.97
2022-08-06T22:16:57.348Z,102221.03
2022-08-06T22:19:27.607Z,102216.28
2022-08-06T22:22:07.829Z,102220.22
2022-08-06T22:24:39.358Z,102217.59
2022-08-06T22:27:12.765Z,102214.97
2022-08-06T22:30:04.343Z,102214.91
2022-08-06T22:32:36.354Z,102214.03
2022-08-06T22:35:09.311Z,102218.09
2022-08-06T22:38:16.042Z,102214.28
2022-08-06T22:40:29.888Z,102205.28
2022-08-06T22:43:17.240Z,102206.56
2022-08-06T22:46:02.485Z,102210.13
2022-08-06T22:48:35.493Z,102215.69
2022-08-06T22:51:15.620Z,102207.25
2022-08-06T22:54:27.070Z,102204.41
2022-08-06T22:56:38.243Z,102207.66
2022-08-06T22:59:20.358Z,102205.91
2022-08-06T23:02:07.381Z,102203.00
2022-08-06T23:04:46.289Z,102199.69
2022-08-06T23:07:25.770Z,102199.69
2022-08-06T23:10:07.158Z,102192.72
2022-08-06T23:12:37.262Z,102194.41
2022-08-06T23:15:29.818Z,102195.53
2022-08-06T23:18:00.405Z,102196.59
2022-08-06T23:20:32.712Z,102198.44
2022-08-06T23:23:04.750Z,102206.34
2022-08-06T23:25:59.637Z,102201.00
2022-08-06T23:28:23.210Z,102194.06
2022-08-06T23:30:52.293Z,102201.97
2022-08-06T23:33:20.573Z,102200.06
2022-08-06T23:35:48.794Z,102199.38
2022-08-06T23:38:33.730Z,102197.50
2022-08-06T23:41:05.202Z,102204.06
2022-08-06T23:43:49.667Z,102198.44
2022-08-06T23:46:19.816Z,102198.59
2022-08-06T23:48:58.891Z,102200.59
2022-08-06T23:51:36.150Z,102204.34
2022-08-06T23:54:23.311Z,102197.34
2022-08-06T23:56:57.597Z,102203.16
2022-08-06T23:59:45.733Z,102193.78
